Time;durP1;ratioP1;P1;durP2;ratioP2;P2;SDS_P1;SDS_P2;PMS_P1;PMS_P2;Temp;Humidity;BMP_temperature;BMP_pressure;BME280_temperature;BME280_humidity;BME280_pressure;Samples;Min_cycle;Max_cycle;Signal;HPM_P1;HPM_P2
2022/03/22 00:01:10;;;;;;;11.33;10.10;;;2.20;99.90;;;;;;5064843;28;20187;-73
2022/03/22 00:03:36;;;;;;;11.53;10.33;;;2.10;99.90;;;;;;5066000;28;20183;-72
2022/03/22 00:06:03;;;;;;;13.70;10.43;;;2.10;99.90;;;;;;5070810;28;20626;-71
2022/03/22 00:08:29;;;;;;;11.70;10.30;;;2.10;99.90;;;;;;5064972;28;20624;-71
2022/03/22 00:10:55;;;;;;;12.87;10.97;;;2.00;99.90;;;;;;5068252;28;20754;-71
2022/03/22 00:13:21;;;;;;;13.93;11.03;;;2.00;99.90;;;;;;5065851;28;20659;-71
2022/03/22 00:15:46;;;;;;;15.17;11.70;;;2.10;99.90;;;;;;5073523;28;20222;-71
2022/03/22 00:18:12;;;;;;;13.43;11.20;;;2.00;99.90;;;;;;5071344;28;20253;-72
2022/03/22 00:20:37;;;;;;;12.67;10.67;;;2.10;99.90;;;;;;5064415;28;20187;-71
2022/03/22 00:23:03;;;;;;;13.47;10.53;;;2.00;99.90;;;;;;5065430;28;20195;-71
2022/03/22 00:25:29;;;;;;;14.63;11.67;;;2.00;99.90;;;;;;5069583;28;20225;-71
2022/03/22 00:27:56;;;;;;;12.80;10.47;;;1.90;99.90;;;;;;5063015;28;20203;-71
2022/03/22 00:30:31;;;;;;;15.20;10.90;;;1.90;99.90;;;;;;5060669;28;20703;-71
2022/03/22 00:32:59;;;;;;;12.27;10.40;;;1.90;99.90;;;;;;5067260;28;20217;-72
2022/03/22 00:35:27;;;;;;;12.23;10.57;;;1.80;99.90;;;;;;5067865;28;20206;-72
2022/03/22 00:37:54;;;;;;;12.70;9.80;;;1.90;99.90;;;;;;5067008;28;20228;-73
2022/03/22 00:40:28;;;;;;;11.13;9.80;;;1.80;99.90;;;;;;5066355;28;20244;-72
2022/03/22 00:42:54;;;;;;;12.97;10.70;;;1.80;99.90;;;;;;5063224;28;20188;-72
2022/03/22 00:45:22;;;;;;;12.10;10.77;;;1.90;99.90;;;;;;5061852;28;20301;-73
2022/03/22 00:47:51;;;;;;;12.50;10.97;;;1.90;99.90;;;;;;5062481;28;20203;-72
2022/03/22 00:50:19;;;;;;;11.77;10.13;;;1.80;99.90;;;;;;5061107;28;20217;-73
2022/03/22 00:52:45;;;;;;;12.77;9.90;;;1.70;99.90;;;;;;5067006;28;20262;-73
2022/03/22 00:55:12;;;;;;;14.93;11.50;;;1.70;99.90;;;;;;5068800;28;20281;-72
2022/03/22 00:57:40;;;;;;;12.33;10.83;;;1.60;99.90;;;;;;5069023;28;20286;-72
2022/03/22 01:00:12;;;;;;;11.97;10.60;;;1.50;99.90;;;;;;5066195;28;20183;-72
2022/03/22 01:02:49;;;;;;;13.13;10.83;;;1.50;99.90;;;;;;5077840;28;20187;-72
2022/03/22 01:05:18;;;;;;;10.73;9.63;;;1.50;99.90;;;;;;5076496;28;20738;-72
2022/03/22 01:07:45;;;;;;;13.30;10.93;;;1.40;99.90;;;;;;5075397;28;20665;-73
2022/03/22 01:10:12;;;;;;;11.83;10.63;;;1.40;99.90;;;;;;5069748;28;20179;-72
2022/03/22 01:12:39;;;;;;;11.47;10.23;;;1.30;99.90;;;;;;5072229;28;20607;-72
2022/03/22 01:15:12;;;;;;;12.83;10.30;;;1.20;99.90;;;;;;5066812;28;20291;-72
2022/03/22 01:17:39;;;;;;;11.60;10.23;;;1.20;99.90;;;;;;5068619;28;20216;-72
2022/03/22 01:20:06;;;;;;;12.47;10.47;;;1.30;99.90;;;;;;5071508;28;20187;-72
2022/03/22 01:22:32;;;;;;;13.10;10.40;;;1.30;99.90;;;;;;5070986;28;20207;-73
2022/03/22 01:24:59;;;;;;;12.10;10.67;;;1.30;99.90;;;;;;5072260;28;20207;-73
2022/03/22 01:27:26;;;;;;;11.70;10.30;;;1.30;99.90;;;;;;5066022;28;20190;-72
2022/03/22 01:29:52;;;;;;;14.80;10.83;;;1.30;99.90;;;;;;5071074;28;20217;-72
2022/03/22 01:32:18;;;;;;;11.90;10.10;;;1.40;99.90;;;;;;5074013;28;20179;-72
2022/03/22 01:34:43;;;;;;;10.00;9.00;;;1.40;99.90;;;;;;5062859;28;20253;-73
2022/03/22 01:37:10;;;;;;;11.57;9.50;;;1.40;99.90;;;;;;5064670;28;20631;-73
2022/03/22 01:39:36;;;;;;;14.60;10.40;;;1.30;99.90;;;;;;5061316;28;20188;-72
2022/03/22 01:42:03;;;;;;;14.37;10.53;;;1.30;99.90;;;;;;5066732;28;20196;-73
2022/03/22 01:44:29;;;;;;;13.27;11.23;;;1.20;99.90;;;;;;5075209;28;20205;-73
2022/03/22 01:47:03;;;;;;;13.33;11.20;;;1.10;99.90;;;;;;5071580;28;20693;-72
2022/03/22 01:49:30;;;;;;;12.53;11.20;;;1.10;99.90;;;;;;5072765;28;20204;-73
2022/03/22 01:51:56;;;;;;;13.03;11.10;;;1.00;99.90;;;;;;5071858;28;20211;-71
2022/03/22 01:54:22;;;;;;;19.47;11.20;;;0.90;99.90;;;;;;5069966;28;20666;-71
2022/03/22 01:56:49;;;;;;;13.27;10.57;;;0.90;99.90;;;;;;5073047;28;20654;-72
2022/03/22 01:59:15;;;;;;;13.57;10.80;;;0.80;99.90;;;;;;5071622;28;20237;-72
2022/03/22 02:07:13;;;;;;;13.07;10.37;;;0.70;99.90;;;;;;5065113;28;20190;-72
2022/03/22 02:09:39;;;;;;;10.47;9.07;;;0.70;99.90;;;;;;5071515;28;20214;-72
2022/03/22 02:12:06;;;;;;;11.47;9.30;;;0.60;99.90;;;;;;5069613;28;20190;-72
2022/03/22 02:14:31;;;;;;;12.30;10.43;;;0.70;99.90;;;;;;5060336;28;20579;-72
2022/03/22 02:16:57;;;;;;;11.67;10.33;;;0.80;99.90;;;;;;5063536;28;20180;-72
2022/03/22 02:19:23;;;;;;;12.20;10.23;;;0.80;99.90;;;;;;5067766;28;20215;-70
2022/03/22 02:21:52;;;;;;;13.17;10.30;;;0.80;99.90;;;;;;5069217;28;20241;-70
2022/03/22 02:24:18;;;;;;;10.00;8.60;;;0.90;99.90;;;;;;5068958;28;20203;-70
2022/03/22 02:26:43;;;;;;;13.13;10.20;;;0.80;99.90;;;;;;5066596;28;20206;-71
2022/03/22 02:29:09;;;;;;;11.10;8.97;;;0.70;99.90;;;;;;5069346;28;20294;-70
2022/03/22 02:31:35;;;;;;;14.83;9.63;;;0.70;99.90;;;;;;5064287;28;20180;-70
2022/03/22 02:34:02;;;;;;;11.23;9.00;;;0.60;99.90;;;;;;5062621;28;20207;-70
2022/03/22 02:36:28;;;;;;;12.87;9.73;;;0.50;99.90;;;;;;5065537;28;20190;-71
2022/03/22 02:38:54;;;;;;;10.13;9.07;;;0.50;99.90;;;;;;5068341;28;20183;-70
2022/03/22 02:41:22;;;;;;;10.27;9.17;;;0.50;99.90;;;;;;5063811;28;20210;-72
2022/03/22 02:43:50;;;;;;;11.60;9.80;;;0.50;99.90;;;;;;5065742;28;20167;-70
2022/03/22 02:46:15;;;;;;;11.40;9.03;;;0.60;99.90;;;;;;5062584;28;20176;-70
2022/03/22 02:48:42;;;;;;;12.60;9.30;;;0.60;99.90;;;;;;5072964;28;20608;-70
2022/03/22 02:51:08;;;;;;;12.10;9.70;;;0.50;99.90;;;;;;5071278;28;20176;-70
2022/03/22 02:53:34;;;;;;;13.17;10.47;;;0.50;99.90;;;;;;5069427;28;20331;-70
2022/03/22 02:55:59;;;;;;;14.50;10.17;;;0.50;99.90;;;;;;5079716;28;20274;-70
2022/03/22 02:58:25;;;;;;;12.30;10.00;;;0.40;99.90;;;;;;5074678;28;20191;-70
2022/03/22 03:00:51;;;;;;;10.73;9.03;;;0.40;99.90;;;;;;5062476;28;20179;-70
2022/03/22 03:03:22;;;;;;;11.10;9.53;;;0.40;99.90;;;;;;5070434;28;20187;-71
2022/03/22 03:05:49;;;;;;;11.13;9.33;;;0.30;99.90;;;;;;5069922;28;20252;-70
2022/03/22 03:11:36;;;;;;;11.80;9.30;;;0.30;99.90;;;;;;5062589;28;20190;-71
2022/03/22 03:16:46;;;;;;;10.57;8.70;;;0.30;99.90;;;;;;5071757;28;20659;-71
2022/03/22 03:19:11;;;;;;;14.07;9.33;;;0.30;99.90;;;;;;5062371;28;20192;-71
2022/03/22 03:21:37;;;;;;;11.93;9.43;;;0.20;99.90;;;;;;5073080;28;20241;-71
2022/03/22 03:24:03;;;;;;;11.13;9.93;;;0.20;99.90;;;;;;5073268;28;20207;-72
2022/03/22 03:26:28;;;;;;;10.70;9.70;;;0.20;99.90;;;;;;5071863;28;20217;-72
2022/03/22 03:28:54;;;;;;;10.57;9.47;;;0.10;99.90;;;;;;5076729;28;20207;-72
2022/03/22 03:31:19;;;;;;;12.07;9.73;;;0.10;99.90;;;;;;5069632;28;20546;-72
2022/03/22 03:33:45;;;;;;;10.07;9.07;;;0.10;99.90;;;;;;5068838;28;20176;-72
2022/03/22 03:36:11;;;;;;;12.97;10.20;;;0.00;99.90;;;;;;5066875;28;20175;-70
2022/03/22 03:38:41;;;;;;;10.63;9.37;;;0.00;99.90;;;;;;5067032;28;20222;-72
2022/03/22 03:43:52;;;;;;;11.07;9.93;;;-0.20;99.90;;;;;;5069706;28;20579;-72
2022/03/22 03:49:02;;;;;;;10.83;9.70;;;-0.30;99.90;;;;;;5062884;28;20700;-73
2022/03/22 03:51:28;;;;;;;10.60;9.47;;;-0.20;99.90;;;;;;5066634;28;20179;-73
2022/03/22 03:53:53;;;;;;;10.70;9.60;;;-0.30;99.90;;;;;;5061809;28;20214;-72
2022/03/22 03:56:19;;;;;;;11.43;9.43;;;-0.30;99.90;;;;;;5066593;28;20549;-72
2022/03/22 03:58:45;;;;;;;10.10;8.73;;;-0.30;99.90;;;;;;5069514;28;20179;-72
2022/03/22 04:01:10;;;;;;;12.37;9.57;;;-0.30;99.90;;;;;;5060001;28;20195;-72
2022/03/22 04:03:38;;;;;;;11.37;8.80;;;-0.30;99.90;;;;;;5072665;28;20657;-72
2022/03/22 04:06:03;;;;;;;11.13;9.77;;;-0.30;99.90;;;;;;5065718;28;20186;-72
2022/03/22 04:08:29;;;;;;;11.83;8.60;;;-0.30;99.90;;;;;;5059772;28;20286;-72
2022/03/22 04:10:55;;;;;;;10.93;9.20;;;-0.30;99.90;;;;;;5054393;28;20203;-72
2022/03/22 04:13:20;;;;;;;11.27;9.30;;;-0.40;99.90;;;;;;5068913;28;20232;-72
2022/03/22 04:15:46;;;;;;;10.93;9.37;;;-0.30;99.90;;;;;;5067924;28;20197;-71
2022/03/22 04:18:12;;;;;;;11.17;9.27;;;-0.40;99.90;;;;;;5065889;28;20539;-70
2022/03/22 04:20:37;;;;;;;10.10;9.07;;;-0.40;99.90;;;;;;5067112;28;20217;-70
2022/03/22 04:23:03;;;;;;;11.87;8.90;;;-0.30;99.90;;;;;;5062713;28;20278;-70
2022/03/22 04:25:29;;;;;;;9.80;8.30;;;-0.40;99.90;;;;;;5075789;28;21238;-70
2022/03/22 04:33:25;;;;;;;12.07;9.00;;;-0.30;99.90;;;;;;5067110;28;20631;-71
2022/03/22 04:35:51;;;;;;;9.20;8.30;;;-0.30;99.90;;;;;;5065663;28;20559;-71
2022/03/22 04:38:16;;;;;;;9.70;8.70;;;-0.40;99.90;;;;;;5070856;28;20187;-71
2022/03/22 04:40:42;;;;;;;10.20;9.07;;;-0.30;99.90;;;;;;5067554;28;20175;-71
2022/03/22 04:43:07;;;;;;;10.43;9.30;;;-0.30;99.90;;;;;;5064606;28;20574;-71
2022/03/22 04:45:34;;;;;;;11.90;9.67;;;-0.40;99.90;;;;;;5066000;28;20650;-71
2022/03/22 04:47:59;;;;;;;11.87;9.50;;;-0.40;99.90;;;;;;5064893;28;20202;-72
2022/03/22 04:50:25;;;;;;;11.13;8.43;;;-0.40;99.90;;;;;;5071730;28;20175;-71
2022/03/22 04:58:19;;;;;;;13.63;9.33;;;-0.40;99.90;;;;;;5063612;28;20190;-71
2022/03/22 05:00:46;;;;;;;10.60;8.73;;;-0.40;99.90;;;;;;5066722;28;20665;-71
2022/03/22 05:03:11;;;;;;;11.93;9.00;;;-0.40;99.90;;;;;;5058820;28;20190;-71
2022/03/22 05:08:21;;;;;;;10.37;9.07;;;-0.50;99.90;;;;;;5066025;28;20348;-71
2022/03/22 05:10:47;;;;;;;9.63;8.63;;;-0.50;99.90;;;;;;5066004;28;20262;-71
2022/03/22 05:13:13;;;;;;;11.00;9.47;;;-0.50;99.90;;;;;;5070291;28;20642;-71
2022/03/22 05:15:38;;;;;;;11.37;9.43;;;-0.50;99.90;;;;;;5068479;28;20214;-73
2022/03/22 05:18:04;;;;;;;15.87;9.37;;;-0.40;99.90;;;;;;5066222;28;20723;-72
2022/03/22 05:20:30;;;;;;;12.03;9.47;;;-0.40;99.90;;;;;;5060121;28;20180;-72
2022/03/22 05:22:58;;;;;;;14.80;9.13;;;-0.40;99.90;;;;;;5062499;28;20194;-72
2022/03/22 05:25:24;;;;;;;10.97;8.23;;;-0.30;99.90;;;;;;5068397;28;20305;-72
2022/03/22 05:27:50;;;;;;;11.80;9.20;;;-0.30;99.90;;;;;;5061832;28;20199;-72
2022/03/22 05:30:15;;;;;;;12.53;9.17;;;-0.30;99.90;;;;;;5068706;28;20171;-71
2022/03/22 05:32:41;;;;;;;12.43;8.83;;;-0.30;99.90;;;;;;5068146;28;20180;-72
2022/03/22 05:35:07;;;;;;;10.30;9.13;;;-0.30;99.90;;;;;;5064939;28;20195;-72
2022/03/22 05:37:33;;;;;;;14.90;9.60;;;-0.30;99.90;;;;;;5068050;28;20237;-72
2022/03/22 05:39:58;;;;;;;10.17;8.93;;;-0.20;99.90;;;;;;5069451;28;20175;-72
2022/03/22 05:42:25;;;;;;;13.13;9.60;;;-0.10;99.90;;;;;;5066553;28;20557;-73
2022/03/22 05:44:50;;;;;;;11.50;9.77;;;-0.10;99.90;;;;;;5066063;28;20290;-73
2022/03/22 05:47:16;;;;;;;10.53;9.27;;;-0.20;99.90;;;;;;5066059;28;20255;-71
2022/03/22 05:49:41;;;;;;;9.63;7.47;;;-0.20;99.90;;;;;;5064960;28;20722;-71
2022/03/22 05:52:07;;;;;;;10.13;8.57;;;-0.10;99.90;;;;;;5067657;28;20203;-71
2022/03/22 05:54:34;;;;;;;9.33;8.37;;;0.00;99.90;;;;;;5084477;28;20730;-71
2022/03/22 05:57:00;;;;;;;16.50;8.73;;;0.10;99.90;;;;;;5071644;28;20178;-73
2022/03/22 05:59:26;;;;;;;8.93;7.23;;;0.20;99.90;;;;;;5067754;28;20183;-73
2022/03/22 06:01:51;;;;;;;12.53;9.13;;;0.20;99.90;;;;;;5069530;28;20175;-73
2022/03/22 06:04:19;;;;;;;13.80;9.37;;;0.40;99.90;;;;;;5068420;28;20203;-74
2022/03/22 06:06:46;;;;;;;11.17;8.77;;;0.40;99.90;;;;;;5063761;28;20610;-73
2022/03/22 06:09:12;;;;;;;11.70;8.10;;;0.60;99.90;;;;;;5074911;28;20294;-73
2022/03/22 06:11:37;;;;;;;12.27;8.50;;;0.70;99.90;;;;;;5070372;28;20262;-73
2022/03/22 06:14:04;;;;;;;11.17;8.93;;;0.80;99.90;;;;;;5070407;28;20191;-72
2022/03/22 06:16:30;;;;;;;10.53;9.03;;;1.00;99.90;;;;;;5067441;28;20221;-72
2022/03/22 06:18:56;;;;;;;9.67;8.60;;;1.00;99.90;;;;;;5068167;28;20240;-73
2022/03/22 06:21:22;;;;;;;12.93;9.13;;;1.00;99.90;;;;;;5071081;28;20183;-73
2022/03/22 06:23:48;;;;;;;12.30;9.93;;;1.10;99.90;;;;;;5067813;28;20175;-74
2022/03/22 06:26:14;;;;;;;14.00;8.00;;;1.20;99.90;;;;;;5070885;28;20721;-72
2022/03/22 06:28:40;;;;;;;17.90;9.30;;;1.20;99.90;;;;;;5068727;28;20199;-73
2022/03/22 06:31:06;;;;;;;10.50;8.30;;;1.30;99.90;;;;;;5066811;28;20316;-72
2022/03/22 06:33:32;;;;;;;11.33;9.50;;;1.40;99.90;;;;;;5070662;28;20707;-72
2022/03/22 06:35:57;;;;;;;9.53;8.50;;;1.50;99.90;;;;;;5066122;28;20191;-73
2022/03/22 06:38:23;;;;;;;12.67;9.63;;;1.50;99.90;;;;;;5066940;28;20751;-73
2022/03/22 06:40:50;;;;;;;9.53;8.23;;;1.60;99.90;;;;;;5068660;28;20175;-73
2022/03/22 06:43:17;;;;;;;9.97;8.60;;;1.70;99.90;;;;;;5065865;28;20607;-73
2022/03/22 06:45:44;;;;;;;9.90;8.43;;;1.80;99.90;;;;;;5064947;28;20219;-73
2022/03/22 06:48:11;;;;;;;10.00;8.77;;;1.80;99.90;;;;;;5066311;28;20233;-71
2022/03/22 06:50:38;;;;;;;14.80;8.40;;;1.90;99.90;;;;;;5068980;28;20522;-74
2022/03/22 06:53:05;;;;;;;13.03;8.83;;;2.00;99.90;;;;;;5066970;28;20178;-73
2022/03/22 06:55:32;;;;;;;9.13;7.97;;;2.00;99.90;;;;;;5053970;28;20610;-73
2022/03/22 06:57:58;;;;;;;9.23;7.60;;;2.00;99.90;;;;;;5063365;28;20198;-72
2022/03/22 07:00:27;;;;;;;9.87;8.30;;;2.10;99.90;;;;;;5065301;28;20184;-72
2022/03/22 07:02:53;;;;;;;9.67;8.07;;;2.20;99.90;;;;;;5066128;28;20175;-71
2022/03/22 07:05:19;;;;;;;8.80;7.73;;;2.20;99.90;;;;;;5063898;28;20210;-72
2022/03/22 07:07:45;;;;;;;10.30;8.40;;;2.30;99.90;;;;;;5069772;28;20195;-72
2022/03/22 07:10:13;;;;;;;10.83;9.07;;;2.40;99.90;;;;;;5062415;28;20183;-72
2022/03/22 07:12:57;;;;;;;8.93;8.03;;;2.40;99.90;;;;;;5071072;28;20194;-71
2022/03/22 07:15:28;;;;;;;8.37;7.57;;;2.50;99.90;;;;;;5067074;28;20218;-71
2022/03/22 07:17:55;;;;;;;12.13;9.00;;;2.50;99.90;;;;;;5062097;28;20190;-67
2022/03/22 07:20:21;;;;;;;9.53;8.40;;;2.60;99.90;;;;;;5065584;28;20614;-68
2022/03/22 07:22:47;;;;;;;10.37;8.10;;;2.60;99.90;;;;;;5060765;28;20423;-71
2022/03/22 07:25:13;;;;;;;8.57;7.77;;;2.80;99.90;;;;;;5066501;28;20257;-71
2022/03/22 07:27:39;;;;;;;8.47;7.57;;;2.80;99.90;;;;;;5065740;28;20211;-71
2022/03/22 07:30:05;;;;;;;10.97;8.90;;;3.00;99.90;;;;;;5064258;28;20177;-70
2022/03/22 07:32:31;;;;;;;9.80;7.93;;;3.00;99.60;;;;;;5060203;28;20182;-70
2022/03/22 07:35:00;;;;;;;8.60;7.03;;;3.20;99.10;;;;;;5062521;28;20211;-70
2022/03/22 07:37:28;;;;;;;9.00;7.60;;;3.30;98.70;;;;;;5066925;28;20167;-71
2022/03/22 07:39:55;;;;;;;8.40;7.50;;;3.30;98.80;;;;;;5073304;28;20186;-71
2022/03/22 07:42:24;;;;;;;9.03;7.90;;;3.50;98.60;;;;;;5061337;28;20172;-70
2022/03/22 07:44:49;;;;;;;11.33;7.90;;;3.60;97.80;;;;;;5069015;28;20187;-71
2022/03/22 07:47:15;;;;;;;11.03;8.03;;;3.70;97.60;;;;;;5071047;28;20187;-69
2022/03/22 07:55:10;;;;;;;9.03;7.57;;;4.00;96.80;;;;;;5066671;28;20206;-70
2022/03/22 07:57:36;;;;;;;12.33;8.40;;;4.10;96.70;;;;;;5062933;28;20324;-70
2022/03/22 08:00:04;;;;;;;10.63;8.27;;;4.20;96.60;;;;;;5059632;28;20180;-70
2022/03/22 08:02:29;;;;;;;9.37;8.20;;;4.30;97.00;;;;;;5067131;28;20186;-70
2022/03/22 08:04:55;;;;;;;10.97;8.47;;;4.40;96.70;;;;;;5066001;28;20683;-71
2022/03/22 08:07:21;;;;;;;8.00;7.20;;;4.50;95.70;;;;;;5064090;28;20175;-71
2022/03/22 08:09:46;;;;;;;9.27;7.80;;;4.60;95.60;;;;;;5062693;28;20215;-70
2022/03/22 08:12:12;;;;;;;10.13;8.43;;;4.60;95.20;;;;;;5066301;28;20179;-71
2022/03/22 08:14:38;;;;;;;9.23;8.33;;;4.70;95.60;;;;;;5063494;28;20195;-71
2022/03/22 08:17:04;;;;;;;14.23;8.07;;;4.80;95.60;;;;;;5059880;28;20241;-73
2022/03/22 08:19:29;;;;;;;8.87;7.97;;;4.90;95.60;;;;;;5066927;28;20175;-73
2022/03/22 08:21:55;;;;;;;9.00;7.50;;;5.00;95.50;;;;;;5061339;28;20176;-73
2022/03/22 08:24:22;;;;;;;9.07;8.00;;;5.10;95.30;;;;;;5069861;28;20729;-72
2022/03/22 08:26:48;;;;;;;9.13;8.23;;;5.20;95.30;;;;;;5066598;28;20217;-72
2022/03/22 08:29:15;;;;;;;10.57;7.27;;;5.20;94.50;;;;;;5068849;28;20570;-72
2022/03/22 08:31:40;;;;;;;9.97;8.23;;;5.40;94.30;;;;;;5058049;28;20206;-72
2022/03/22 08:34:06;;;;;;;9.57;8.07;;;5.50;94.00;;;;;;5061168;28;20250;-72
2022/03/22 08:36:33;;;;;;;13.63;8.87;;;5.60;93.30;;;;;;5064777;28;20179;-73
2022/03/22 08:38:59;;;;;;;10.07;8.20;;;5.70;92.50;;;;;;5069625;28;20187;-73
2022/03/22 08:41:25;;;;;;;11.97;7.80;;;5.90;92.10;;;;;;5064728;28;20180;-72
2022/03/22 08:43:52;;;;;;;8.57;7.67;;;6.00;91.30;;;;;;5067249;28;20183;-71
2022/03/22 08:46:20;;;;;;;9.90;8.30;;;6.20;90.00;;;;;;5067458;28;20225;-72
2022/03/22 08:48:47;;;;;;;9.17;7.80;;;6.40;88.00;;;;;;5060399;28;20472;-72
2022/03/22 08:51:13;;;;;;;8.17;6.60;;;6.60;87.10;;;;;;5078451;28;20250;-71
2022/03/22 08:53:38;;;;;;;9.13;6.43;;;6.90;83.20;;;;;;5064980;28;20657;-71
2022/03/22 08:56:04;;;;;;;8.80;7.33;;;7.20;80.00;;;;;;5064332;28;20176;-73
2022/03/22 08:58:30;;;;;;;6.87;6.17;;;7.50;75.20;;;;;;5067631;28;20269;-75
2022/03/22 09:00:56;;;;;;;6.68;6.07;;;8.70;71.20;;;;;;5061652;28;20308;-74
2022/03/22 09:03:22;;;;;;;7.47;6.78;;;11.40;58.80;;;;;;5060574;28;20183;-74
2022/03/22 09:08:33;;;;;;;7.68;6.90;;;17.10;45.90;;;;;;5071925;28;20233;-74
2022/03/22 09:10:59;;;;;;;16.35;6.85;;;19.50;40.80;;;;;;5063960;28;20175;-74
2022/03/22 09:13:28;;;;;;;7.20;6.43;;;20.80;36.60;;;;;;5062279;28;20399;-74
2022/03/22 09:15:55;;;;;;;7.40;6.60;;;21.90;35.10;;;;;;5064179;28;20286;-74
2022/03/22 09:18:21;;;;;;;11.05;6.13;;;22.80;34.40;;;;;;5066072;28;20740;-75
2022/03/22 09:20:48;;;;;;;12.13;6.28;;;22.30;34.00;;;;;;5063826;28;20191;-75
2022/03/22 09:23:14;;;;;;;10.50;5.35;;;21.60;32.10;;;;;;5069522;28;20609;-75
2022/03/22 09:25:41;;;;;;;9.18;5.97;;;22.10;31.90;;;;;;5065368;28;20218;-75
2022/03/22 09:28:07;;;;;;;6.20;5.60;;;23.30;30.20;;;;;;5068194;28;20613;-74
2022/03/22 09:30:34;;;;;;;5.15;4.75;;;25.00;29.90;;;;;;5074631;28;20174;-74
2022/03/22 09:33:02;;;;;;;5.80;5.30;;;26.00;28.70;;;;;;5062468;28;20229;-74
2022/03/22 09:35:28;;;;;;;5.18;4.57;;;27.00;27.40;;;;;;5072935;28;20200;-73
2022/03/22 09:37:54;;;;;;;5.10;4.70;;;27.70;26.30;;;;;;5075023;28;20171;-74
2022/03/22 09:40:22;;;;;;;5.53;4.93;;;28.70;26.70;;;;;;5068644;28;20822;-73
2022/03/22 09:42:48;;;;;;;4.93;4.53;;;29.30;26.40;;;;;;5068049;28;20269;-74
2022/03/22 09:45:17;;;;;;;4.43;4.13;;;30.10;25.90;;;;;;5070161;28;20195;-74
2022/03/22 09:47:44;;;;;;;5.63;4.68;;;30.10;24.40;;;;;;5071642;28;20175;-74
2022/03/22 09:50:12;;;;;;;4.57;4.28;;;30.20;25.20;;;;;;5066071;28;20445;-74
2022/03/22 09:52:38;;;;;;;4.10;3.80;;;30.30;24.30;;;;;;5076587;28;20665;-74
2022/03/22 09:55:07;;;;;;;4.50;4.03;;;30.90;24.40;;;;;;5071680;28;20278;-74
2022/03/22 09:57:33;;;;;;;4.75;4.07;;;30.20;23.80;;;;;;5067684;28;20215;-73
2022/03/22 09:59:58;;;;;;;3.83;3.53;;;30.60;24.80;;;;;;5063133;28;20219;-76
2022/03/22 10:02:33;;;;;;;4.70;4.30;;;31.00;23.80;;;;;;5071639;28;20180;-79
2022/03/22 10:04:59;;;;;;;4.40;4.10;;;31.60;24.00;;;;;;5080805;28;20700;-76
2022/03/22 10:07:27;;;;;;;3.65;3.45;;;32.10;23.60;;;;;;5075355;28;20207;-78
2022/03/22 10:10:02;;;;;;;4.22;3.92;;;32.20;23.60;;;;;;5065813;28;20271;-79
2022/03/22 10:12:36;;;;;;;4.65;4.35;;;32.50;23.90;;;;;;5073909;28;20262;-79
2022/03/22 10:15:15;;;;;;;7.40;4.15;;;32.90;23.20;;;;;;5067969;28;20253;-78
2022/03/22 10:17:43;;;;;;;5.97;4.10;;;32.80;23.20;;;;;;5069216;28;20526;-78
2022/03/22 10:20:19;;;;;;;5.13;4.32;;;32.30;22.40;;;;;;5070107;28;20194;-75
2022/03/22 10:22:45;;;;;;;12.57;4.43;;;32.10;23.60;;;;;;5064980;28;20186;-76
2022/03/22 10:25:11;;;;;;;5.25;3.80;;;31.90;23.40;;;;;;5066527;28;20208;-74
2022/03/22 10:27:37;;;;;;;5.18;4.25;;;32.80;23.70;;;;;;5065062;28;20560;-74
2022/03/22 10:30:06;;;;;;;4.57;4.20;;;32.80;22.80;;;;;;5062392;28;20269;-72
2022/03/22 10:32:52;;;;;;;4.13;3.72;;;33.60;22.80;;;;;;5065829;28;20179;-73
2022/03/22 10:35:25;;;;;;;4.28;3.88;;;34.10;22.20;;;;;;5065007;28;20213;-74
2022/03/22 10:37:52;;;;;;;4.57;4.18;;;32.70;22.90;;;;;;5074575;28;20176;-71
2022/03/22 10:40:25;;;;;;;6.95;3.75;;;33.00;22.80;;;;;;5069212;28;20188;-71
2022/03/22 10:42:53;;;;;;;6.20;4.03;;;33.40;22.30;;;;;;5067925;28;20561;-72
2022/03/22 10:45:19;;;;;;;4.65;4.30;;;33.90;22.10;;;;;;5066618;28;20203;-71
2022/03/22 10:47:45;;;;;;;4.38;4.05;;;33.40;22.70;;;;;;5065142;28;20666;-73
2022/03/22 10:50:11;;;;;;;4.72;4.32;;;33.20;22.90;;;;;;5072274;28;20179;-73
2022/03/22 10:52:57;;;;;;;4.40;3.97;;;33.20;22.80;;;;;;5070491;28;20657;-73
2022/03/22 10:55:27;;;;;;;4.60;4.20;;;33.40;22.70;;;;;;5069724;28;20207;-72
2022/03/22 10:57:57;;;;;;;3.85;3.55;;;34.00;22.40;;;;;;5061376;28;20180;-72
2022/03/22 11:00:24;;;;;;;4.10;3.80;;;34.00;22.90;;;;;;5067766;28;20692;-73
2022/03/22 11:02:55;;;;;;;4.38;4.05;;;34.20;22.80;;;;;;5068444;28;20183;-71
2022/03/22 11:05:22;;;;;;;4.38;3.97;;;32.90;22.40;;;;;;5066258;28;20187;-72
2022/03/22 11:07:52;;;;;;;3.80;3.60;;;33.30;23.50;;;;;;5065548;28;20718;-73
2022/03/22 11:10:29;;;;;;;4.60;4.22;;;33.70;23.10;;;;;;5066701;28;20262;-73
2022/03/22 11:12:58;;;;;;;4.10;3.90;;;34.00;22.90;;;;;;5067543;28;20165;-73
2022/03/22 11:15:35;;;;;;;4.45;4.05;;;34.20;22.50;;;;;;5071629;28;20234;-73
2022/03/22 11:18:02;;;;;;;4.53;4.13;;;33.90;22.90;;;;;;5061803;28;20182;-71
2022/03/22 11:20:28;;;;;;;4.10;3.80;;;34.30;23.10;;;;;;5068003;28;20171;-71
2022/03/22 11:23:00;;;;;;;4.00;3.60;;;34.70;22.90;;;;;;5069856;28;20175;-71
2022/03/22 11:25:36;;;;;;;3.83;3.28;;;35.80;22.20;;;;;;5062030;28;20264;-72
2022/03/22 11:28:09;;;;;;;5.78;3.80;;;35.60;22.70;;;;;;5066109;28;20210;-71
2022/03/22 11:30:37;;;;;;;3.58;3.38;;;36.00;21.90;;;;;;5067810;28;20183;-71
2022/03/22 11:35:50;;;;;;;4.15;3.65;;;36.90;21.30;;;;;;5067575;28;20281;-71
2022/03/22 11:38:42;;;;;;;3.92;3.70;;;36.10;21.70;;;;;;5067108;28;20654;-69
2022/03/22 11:44:17;;;;;;;3.22;2.95;;;35.00;21.00;;;;;;5068447;28;20208;-72
2022/03/22 11:46:44;;;;;;;4.03;3.63;;;35.20;21.20;;;;;;5071405;28;20261;-70
2022/03/22 11:49:21;;;;;;;3.85;3.42;;;35.90;21.10;;;;;;5066007;28;20293;-69
2022/03/22 11:51:58;;;;;;;3.63;3.28;;;35.40;20.60;;;;;;5066961;28;20174;-70
2022/03/22 11:54:28;;;;;;;3.08;2.88;;;34.70;20.50;;;;;;5062234;28;20199;-70
2022/03/22 11:56:59;;;;;;;3.75;3.28;;;34.80;21.10;;;;;;5061916;28;20170;-70
2022/03/22 11:59:25;;;;;;;4.22;3.75;;;35.40;21.60;;;;;;5065688;28;20266;-70
2022/03/22 12:02:18;;;;;;;3.58;3.28;;;35.60;21.40;;;;;;5070117;28;20210;-69
2022/03/22 12:04:55;;;;;;;3.30;3.00;;;35.50;21.20;;;;;;5058611;28;20211;-68
2022/03/22 12:07:29;;;;;;;3.33;3.10;;;36.60;20.40;;;;;;5064055;28;20249;-68
2022/03/22 12:10:13;;;;;;;5.88;3.47;;;35.70;21.20;;;;;;5062554;28;20300;-69
2022/03/22 12:12:42;;;;;;;3.97;3.58;;;34.90;21.80;;;;;;5069656;28;20935;-69
2022/03/22 12:15:10;;;;;;;3.35;3.15;;;34.00;22.20;;;;;;5066692;28;20210;-69
2022/03/22 12:17:37;;;;;;;3.30;3.10;;;35.40;21.70;;;;;;5061742;28;20171;-70
2022/03/22 12:20:14;;;;;;;3.53;2.67;;;36.10;21.20;;;;;;5066443;28;20207;-68
2022/03/22 12:22:45;;;;;;;4.10;3.05;;;35.50;21.40;;;;;;5063423;28;20520;-69
2022/03/22 12:25:17;;;;;;;3.28;3.08;;;36.50;21.50;;;;;;5054925;28;20573;-69
2022/03/22 12:27:55;;;;;;;2.92;2.72;;;37.20;21.20;;;;;;5064055;28;20265;-69
2022/03/22 12:30:26;;;;;;;2.83;2.72;;;36.50;20.50;;;;;;5056009;28;20262;-69
2022/03/22 12:32:53;;;;;;;2.75;2.60;;;36.50;20.10;;;;;;5059329;28;20681;-70
2022/03/22 12:35:20;;;;;;;3.42;3.15;;;36.20;21.20;;;;;;5064821;28;20234;-69
2022/03/22 12:37:46;;;;;;;3.47;3.17;;;35.70;20.30;;;;;;5059050;28;20571;-70
2022/03/22 12:40:13;;;;;;;3.13;2.92;;;34.90;21.00;;;;;;5066601;28;20225;-69
2022/03/22 12:42:40;;;;;;;4.35;3.28;;;35.30;21.40;;;;;;5064584;28;20186;-70
2022/03/22 12:45:06;;;;;;;3.78;3.47;;;34.90;21.30;;;;;;5062645;28;20535;-70
2022/03/22 12:47:33;;;;;;;3.70;3.40;;;34.30;21.00;;;;;;5060339;28;20262;-69
2022/03/22 12:49:59;;;;;;;3.08;2.88;;;34.20;21.30;;;;;;5059656;28;20256;-70
2022/03/22 12:52:28;;;;;;;5.57;3.55;;;33.70;20.90;;;;;;5076685;28;20179;-71
2022/03/22 12:54:54;;;;;;;3.10;2.90;;;33.40;21.20;;;;;;5066777;28;20197;-74
2022/03/22 12:57:19;;;;;;;2.85;2.72;;;32.40;21.60;;;;;;5064464;28;20179;-70
2022/03/22 12:59:45;;;;;;;3.67;3.35;;;31.80;22.00;;;;;;5065603;28;20488;-71
2022/03/22 13:02:10;;;;;;;3.42;3.10;;;32.10;22.00;;;;;;5069101;28;20208;-73
2022/03/22 13:04:49;;;;;;;3.83;3.22;;;32.30;22.10;;;;;;5064557;28;20211;-68
2022/03/22 13:07:24;;;;;;;3.40;3.20;;;32.10;21.50;;;;;;5070489;28;20178;-68
2022/03/22 13:12:35;;;;;;;3.28;3.08;;;31.70;22.40;;;;;;5058883;28;20194;-69
2022/03/22 13:15:17;;;;;;;3.33;3.08;;;31.90;21.90;;;;;;5064710;28;20640;-69
2022/03/22 13:17:48;;;;;;;3.22;2.97;;;32.20;22.10;;;;;;5061739;28;20465;-70
2022/03/22 13:20:18;;;;;;;4.57;3.42;;;31.90;22.00;;;;;;5056537;28;20186;-70
2022/03/22 13:23:04;;;;;;;4.00;3.35;;;32.10;21.70;;;;;;5065141;28;20668;-69
2022/03/22 13:25:38;;;;;;;3.00;2.80;;;31.90;22.30;;;;;;5061524;28;20218;-68
2022/03/22 13:28:13;;;;;;;3.00;2.80;;;31.60;22.00;;;;;;5068890;28;20182;-69
2022/03/22 13:30:44;;;;;;;3.03;2.83;;;31.60;21.80;;;;;;5065652;28;20212;-68
2022/03/22 13:33:21;;;;;;;2.35;2.25;;;31.00;21.50;;;;;;5065042;28;20182;-70
2022/03/22 13:35:55;;;;;;;2.65;2.55;;;30.50;21.00;;;;;;5062554;28;20186;-70